Time;durP1;ratioP1;P1;durP2;ratioP2;P2;SDS_P1;SDS_P2;PMS_P1;PMS_P2;Temp;Humidity;BMP_temperature;BMP_pressure;BME280_temperature;BME280_humidity;BME280_pressure;Samples;Min_cycle;Max_cycle;Signal;HPM_P1;HPM_P2
2023/02/19 00:01:18;;;;;;;;;;;10.70;99.90;;;;;;5025669;28;19917;-58
2023/02/19 00:03:47;;;;;;;;;;;10.70;99.90;;;;;;5032482;28;20024;-58
2023/02/19 00:06:13;;;;;;;;;;;10.70;99.90;;;;;;5028603;28;20003;-59
2023/02/19 00:08:38;;;;;;;;;;;10.70;99.90;;;;;;5023199;28;20020;-60
2023/02/19 00:11:05;;;;;;;;;;;10.70;99.90;;;;;;5029497;28;19967;-59
2023/02/19 00:13:34;;;;;;;;;;;10.70;99.90;;;;;;5036510;28;19958;-59
2023/02/19 00:16:03;;;;;;;;;;;10.70;99.90;;;;;;5024677;28;20000;-61
2023/02/19 00:18:29;;;;;;;;;;;10.70;99.90;;;;;;5028067;28;19913;-60
2023/02/19 00:20:55;;;;;;;;;;;10.70;99.90;;;;;;5027933;28;19909;-61
2023/02/19 00:23:21;;;;;;;;;;;10.70;99.90;;;;;;5024869;28;19933;-62
2023/02/19 00:25:46;;;;;;;;;;;10.70;99.90;;;;;;5023711;28;20342;-58
2023/02/19 00:28:12;;;;;;;;;;;10.60;99.90;;;;;;5017931;28;19913;-59
2023/02/19 00:33:04;;;;;;;;;;;10.60;99.90;;;;;;5068516;23;19925;-62
2023/02/19 00:35:32;;;;;;;;;;;10.70;99.90;;;;;;5042314;28;20012;-61
2023/02/19 00:37:58;;;;;;;;;;;10.70;99.90;;;;;;5046162;28;19948;-62
2023/02/19 00:40:24;;;;;;;;;;;10.70;99.90;;;;;;5044279;28;19944;-62
2023/02/19 00:42:50;;;;;;;;;;;10.70;99.90;;;;;;5025161;28;19917;-62
2023/02/19 00:45:15;;;;;;;;;;;10.70;99.90;;;;;;5025112;28;19920;-62
2023/02/19 00:47:41;;;;;;;;;;;10.70;99.90;;;;;;5026484;28;19921;-62
2023/02/19 00:50:06;;;;;;;;;;;10.70;99.90;;;;;;5026386;28;19993;-62
2023/02/19 00:52:32;;;;;;;;;;;10.70;99.90;;;;;;5028755;28;19967;-61
2023/02/19 00:54:57;;;;;;;;;;;10.70;99.90;;;;;;5027551;28;19944;-62
2023/02/19 00:57:23;;;;;;;;;;;10.70;99.90;;;;;;5024690;28;19917;-61
2023/02/19 00:59:48;;;;;;;;;;;10.60;99.90;;;;;;5024396;28;20071;-61
2023/02/19 01:02:14;;;;;;;;;;;10.70;99.90;;;;;;5026698;28;19932;-64
2023/02/19 01:04:39;;;;;;;;;;;10.70;99.90;;;;;;5025426;28;19918;-61
2023/02/19 01:07:05;;;;;;;;;;;10.70;99.90;;;;;;5028819;28;19913;-61
2023/02/19 01:09:30;;;;;;;;;;;10.60;99.90;;;;;;5022123;28;19921;-61
2023/02/19 01:11:55;;;;;;;;;;;10.60;99.90;;;;;;5025690;28;19949;-62
2023/02/19 01:14:21;;;;;;;;;;;10.60;99.90;;;;;;5028366;28;19917;-61
2023/02/19 01:16:46;;;;;;;;;;;10.60;99.90;;;;;;5024491;28;19917;-62
2023/02/19 01:19:12;;;;;;;;;;;10.60;99.90;;;;;;5026448;28;19920;-61
2023/02/19 01:21:38;;;;;;;;;;;10.60;99.90;;;;;;5023728;28;19913;-62
2023/02/19 01:24:04;;;;;;;;;;;10.70;99.90;;;;;;5025021;28;19921;-62
2023/02/19 01:26:30;;;;;;;;;;;10.70;99.90;;;;;;5027723;28;19913;-62
2023/02/19 01:28:56;;;;;;;;;;;10.60;99.90;;;;;;5026937;28;19982;-61
2023/02/19 01:31:22;;;;;;;;;;;10.70;99.90;;;;;;5028595;28;19917;-62
2023/02/19 01:33:49;;;;;;;;;;;10.60;99.90;;;;;;5025406;28;19920;-61
2023/02/19 01:36:15;;;;;;;;;;;10.70;99.90;;;;;;5026617;28;20417;-62
2023/02/19 01:38:41;;;;;;;;;;;10.70;99.90;;;;;;5030006;28;19913;-61
2023/02/19 01:41:08;;;;;;;;;;;10.70;99.90;;;;;;5033269;28;19915;-62
2023/02/19 01:43:52;;;;;;;;;;;10.70;99.90;;;;;;5027544;28;19943;-61
2023/02/19 01:46:17;;;;;;;;;;;10.70;99.90;;;;;;5028472;28;19917;-61
2023/02/19 01:48:42;;;;;;;;;;;10.70;99.90;;;;;;5026466;28;20007;-62
2023/02/19 01:51:11;;;;;;;;;;;10.70;99.90;;;;;;5027680;28;19921;-61
2023/02/19 01:53:40;;;;;;;;;;;10.70;99.90;;;;;;5027400;28;19928;-61
2023/02/19 01:56:06;;;;;;;;;;;10.70;99.90;;;;;;5026986;28;19941;-61
2023/02/19 01:58:33;;;;;;;;;;;10.70;99.90;;;;;;5027547;28;19996;-61
2023/02/19 02:00:59;;;;;;;;;;;10.70;99.90;;;;;;5022443;28;19913;-62
2023/02/19 02:03:24;;;;;;;;;;;10.70;99.90;;;;;;5027670;28;19975;-62
2023/02/19 02:06:00;;;;;;;;;;;10.70;99.90;;;;;;5025249;28;19947;-61
2023/02/19 02:11:10;;;;;;;;;;;10.70;99.90;;;;;;5025926;28;19967;-61
2023/02/19 02:13:36;;;;;;;;;;;10.80;99.90;;;;;;5027315;28;19920;-61
2023/02/19 02:16:12;;;;;;;;;;;10.70;99.90;;;;;;5027390;28;20000;-61
2023/02/19 02:18:48;;;;;;;;;;;10.70;99.90;;;;;;5030361;28;19971;-61
2023/02/19 02:21:16;;;;;;;;;;;10.80;99.90;;;;;;5021903;28;19913;-60
2023/02/19 02:23:58;;;;;;;;;;;10.80;99.90;;;;;;5028619;28;20288;-60
2023/02/19 02:26:42;;;;;;;;;;;10.80;99.90;;;;;;5028660;28;19924;-60
2023/02/19 02:29:19;;;;;;;;;;;10.80;99.90;;;;;;5027303;28;19967;-61
2023/02/19 02:31:50;;;;;;;;;;;10.80;99.90;;;;;;5025438;28;19946;-60
2023/02/19 02:34:15;;;;;;;;;;;10.80;99.90;;;;;;5028132;28;20003;-61
2023/02/19 02:36:42;;;;;;;;;;;10.80;99.90;;;;;;5028029;28;20055;-63
2023/02/19 02:39:10;;;;;;;;;;;10.80;99.90;;;;;;5028416;28;19913;-61
2023/02/19 02:41:41;;;;;;;;;;;10.80;99.90;;;;;;5026107;28;19914;-60
2023/02/19 02:44:06;;;;;;;;;;;10.80;99.90;;;;;;5021925;28;20340;-63
2023/02/19 02:46:33;;;;;;;;;;;10.70;99.90;;;;;;5028587;28;20062;-61
2023/02/19 02:49:03;;;;;;;;;;;10.70;99.90;;;;;;5026723;28;19921;-61
2023/02/19 02:51:37;;;;;;;;;;;10.70;99.90;;;;;;5027877;28;20309;-61
2023/02/19 02:57:13;;;;;;;;;;;10.60;99.90;;;;;;5027787;28;19940;-61
2023/02/19 02:59:40;;;;;;;;;;;10.60;99.90;;;;;;5023460;28;19917;-61
2023/02/19 03:02:10;;;;;;;;;;;10.60;99.90;;;;;;5023052;28;19913;-61
2023/02/19 03:04:36;;;;;;;;;;;10.60;99.90;;;;;;5026893;28;19924;-61
2023/02/19 03:07:06;;;;;;;;;;;10.60;99.90;;;;;;5027859;28;20299;-61
2023/02/19 03:09:39;;;;;;;;;;;10.50;99.90;;;;;;5022505;28;20294;-61
2023/02/19 03:20:25;;;;;;;;;;;10.50;99.90;;;;;;5027039;28;20362;-60
2023/02/19 03:22:52;;;;;;;;;;;10.50;99.90;;;;;;5026984;28;19913;-60
2023/02/19 03:28:12;;;;;;;;;;;10.50;99.90;;;;;;5025253;28;19927;-60
2023/02/19 03:30:40;;;;;;;;;;;10.50;99.90;;;;;;5023825;28;19913;-60
2023/02/19 03:33:08;;;;;;;;;;;10.50;99.90;;;;;;5029090;28;19917;-60
2023/02/19 03:35:35;;;;;;;;;;;10.50;99.90;;;;;;5027381;28;19917;-61
2023/02/19 03:38:05;;;;;;;;;;;10.50;99.90;;;;;;5028074;28;19913;-60
2023/02/19 03:40:37;;;;;;;;;;;10.50;99.90;;;;;;5024594;28;19921;-61
2023/02/19 03:43:07;;;;;;;;;;;10.60;99.90;;;;;;5029262;28;19913;-61
2023/02/19 03:45:41;;;;;;;;;;;10.60;99.90;;;;;;5024624;28;20358;-61
2023/02/19 03:48:16;;;;;;;;;;;10.50;99.90;;;;;;5028315;28;20402;-59
2023/02/19 03:50:45;;;;;;;;;;;10.50;99.90;;;;;;5023860;28;19921;-60
2023/02/19 03:53:14;;;;;;;;;;;10.60;99.90;;;;;;5026762;28;19913;-60
2023/02/19 03:55:44;;;;;;;;;;;10.50;99.90;;;;;;5027993;28;20493;-60
2023/02/19 03:58:09;;;;;;;;;;;10.50;99.90;;;;;;5024192;28;19922;-59
2023/02/19 04:00:41;;;;;;;;;;;10.50;99.90;;;;;;5021962;28;20062;-58
2023/02/19 04:03:14;;;;;;;;;;;10.50;99.90;;;;;;5027564;28;19957;-60
2023/02/19 04:05:44;;;;;;;;;;;10.50;99.90;;;;;;5025624;28;19920;-60
2023/02/19 04:08:12;;;;;;;;;;;10.50;99.90;;;;;;5025691;28;20274;-60
2023/02/19 04:10:39;;;;;;;;;;;10.50;99.90;;;;;;5027564;28;19984;-60
2023/02/19 04:13:08;;;;;;;;;;;10.50;99.90;;;;;;5025481;28;20350;-60
2023/02/19 04:15:35;;;;;;;;;;;10.50;99.90;;;;;;5027425;28;19960;-60
2023/02/19 04:18:05;;;;;;;;;;;10.50;99.90;;;;;;5028117;28;19917;-60
2023/02/19 04:20:33;;;;;;;;;;;10.50;99.90;;;;;;5024345;28;19913;-61
2023/02/19 04:22:58;;;;;;;;;;;10.40;99.90;;;;;;5026097;28;20406;-60
2023/02/19 04:25:24;;;;;;;;;;;10.40;99.90;;;;;;5023284;28;19913;-59
2023/02/19 04:27:50;;;;;;;;;;;10.40;99.90;;;;;;5026085;28;19917;-59
2023/02/19 04:30:15;;;;;;;;;;;10.40;99.90;;;;;;5026621;28;19913;-60
2023/02/19 04:32:41;;;;;;;;;;;10.40;99.90;;;;;;5025529;28;20293;-59
2023/02/19 04:35:07;;;;;;;;;;;10.30;99.90;;;;;;5025950;28;19920;-59
2023/02/19 04:37:32;;;;;;;;;;;10.30;99.90;;;;;;5027955;28;19968;-57
2023/02/19 04:39:58;;;;;;;;;;;10.30;99.90;;;;;;5026392;28;19983;-58
2023/02/19 04:42:23;;;;;;;;;;;10.40;99.90;;;;;;5027627;28;20006;-59
2023/02/19 04:44:48;;;;;;;;;;;10.30;99.90;;;;;;5024695;28;19925;-60
2023/02/19 04:47:16;;;;;;;;;;;10.30;99.90;;;;;;5026439;28;19917;-59
2023/02/19 04:49:42;;;;;;;;;;;10.30;99.90;;;;;;5026192;28;19920;-62
2023/02/19 04:52:08;;;;;;;;;;;10.30;99.90;;;;;;5027109;28;20294;-59
2023/02/19 04:54:33;;;;;;;;;;;10.30;99.90;;;;;;5022329;28;19918;-59
2023/02/19 04:56:58;;;;;;;;;;;10.30;99.90;;;;;;5025640;28;19913;-58
2023/02/19 04:59:24;;;;;;;;;;;10.30;99.90;;;;;;5022279;28;19914;-59
2023/02/19 05:01:49;;;;;;;;;;;10.30;99.90;;;;;;5024164;28;20016;-61
2023/02/19 05:04:15;;;;;;;;;;;10.20;99.90;;;;;;5030390;28;19917;-59
2023/02/19 05:06:40;;;;;;;;;;;10.20;99.90;;;;;;5030907;28;19920;-58
2023/02/19 05:09:06;;;;;;;;;;;10.20;99.90;;;;;;5028985;28;20381;-59
2023/02/19 05:11:31;;;;;;;;;;;10.20;99.90;;;;;;5029578;28;20490;-57
2023/02/19 05:13:56;;;;;;;;;;;10.10;99.90;;;;;;5030925;28;19914;-58
2023/02/19 05:16:22;;;;;;;;;;;10.10;99.90;;;;;;5024617;28;19913;-59
2023/02/19 05:18:48;;;;;;;;;;;10.10;99.90;;;;;;5026922;28;19919;-59
2023/02/19 05:21:13;;;;;;;;;;;10.00;99.90;;;;;;5029005;28;20039;-58
2023/02/19 05:23:39;;;;;;;;;;;10.00;99.90;;;;;;5031178;28;20390;-58
2023/02/19 05:26:10;;;;;;;;;;;10.00;99.90;;;;;;5028438;28;20095;-58
2023/02/19 05:28:35;;;;;;;;;;;10.00;99.90;;;;;;5025673;28;20438;-59
2023/02/19 05:31:05;;;;;;;;;;;10.00;99.90;;;;;;5027759;28;20012;-58
2023/02/19 05:33:31;;;;;;;;;;;10.00;99.90;;;;;;5028776;28;19917;-60
2023/02/19 05:35:56;;;;;;;;;;;10.00;99.90;;;;;;5029664;28;19920;-59
2023/02/19 05:38:22;;;;;;;;;;;10.00;99.90;;;;;;5031229;28;19913;-59
2023/02/19 05:40:48;;;;;;;;;;;10.00;99.90;;;;;;5025427;28;19957;-59
2023/02/19 05:43:14;;;;;;;;;;;9.90;99.90;;;;;;5030418;28;19948;-58
2023/02/19 05:45:39;;;;;;;;;;;9.90;99.90;;;;;;5029785;28;19959;-59
2023/02/19 05:48:05;;;;;;;;;;;9.90;99.90;;;;;;5025257;28;19920;-59
2023/02/19 05:50:32;;;;;;;;;;;9.90;99.90;;;;;;5025365;28;19968;-58
2023/02/19 05:53:04;;;;;;;;;;;9.90;99.90;;;;;;5028637;28;20327;-58
2023/02/19 05:55:33;;;;;;;;;;;9.90;99.90;;;;;;5026789;28;19913;-58
2023/02/19 05:57:58;;;;;;;;;;;9.90;99.90;;;;;;5025188;28;19922;-59
2023/02/19 06:00:25;;;;;;;;;;;9.90;99.90;;;;;;5027891;28;20459;-59
2023/02/19 06:02:51;;;;;;;;;;;9.90;99.90;;;;;;5025726;28;19925;-58
2023/02/19 06:05:16;;;;;;;;;;;9.90;99.90;;;;;;5029264;28;19983;-59
2023/02/19 06:07:42;;;;;;;;;;;9.90;99.90;;;;;;5029751;28;19917;-60
2023/02/19 06:10:09;;;;;;;;;;;9.90;99.90;;;;;;5030328;28;19920;-59
2023/02/19 06:12:35;;;;;;;;;;;9.90;99.90;;;;;;5025527;28;19913;-60
2023/02/19 06:15:00;;;;;;;;;;;9.90;99.90;;;;;;5028815;28;19921;-60
2023/02/19 06:17:26;;;;;;;;;;;9.90;99.90;;;;;;5028497;28;19974;-60
2023/02/19 06:19:51;;;;;;;;;;;9.80;99.90;;;;;;5028414;28;19917;-57
2023/02/19 06:22:17;;;;;;;;;;;9.90;99.90;;;;;;5025834;28;20512;-55
2023/02/19 06:24:42;;;;;;;;;;;9.80;99.90;;;;;;5026468;28;19928;-61
2023/02/19 06:27:08;;;;;;;;;;;9.80;99.90;;;;;;5028983;28;20295;-59
2023/02/19 06:29:34;;;;;;;;;;;9.80;99.90;;;;;;5027079;28;19917;-58
2023/02/19 06:31:59;;;;;;;;;;;9.80;99.90;;;;;;5049919;22;20408;-86
2023/02/19 06:34:25;;;;;;;;;;;9.80;99.90;;;;;;5079505;28;19909;-82
2023/02/19 06:36:51;;;;;;;;;;;9.80;99.90;;;;;;5068117;28;19959;-83
2023/02/19 06:39:17;;;;;;;;;;;9.80;99.90;;;;;;5066460;28;19920;-82
2023/02/19 06:41:42;;;;;;;;;;;9.80;99.90;;;;;;5064677;28;20014;-85
2023/02/19 06:44:08;;;;;;;;;;;9.80;99.90;;;;;;5057604;28;19954;-85
2023/02/19 06:46:34;;;;;;;;;;;9.80;99.90;;;;;;5054490;28;19939;-83
2023/02/19 06:48:59;;;;;;;;;;;9.70;99.90;;;;;;5056477;28;20352;-86
2023/02/19 06:51:27;;;;;;;;;;;9.80;99.90;;;;;;5052877;28;19912;-85
2023/02/19 06:53:53;;;;;;;;;;;9.80;99.90;;;;;;5056261;28;20337;-84
2023/02/19 06:56:23;;;;;;;;;;;9.80;99.90;;;;;;5059311;28;19937;-85
2023/02/19 06:58:49;;;;;;;;;;;9.80;99.90;;;;;;5059075;28;19984;-84
2023/02/19 07:01:14;;;;;;;;;;;9.80;99.90;;;;;;5053910;28;19945;-84
2023/02/19 07:03:40;;;;;;;;;;;9.80;99.90;;;;;;5055644;28;20358;-84
2023/02/19 07:06:05;;;;;;;;;;;9.80;99.90;;;;;;5061285;28;19912;-85
2023/02/19 07:08:31;;;;;;;;;;;9.80;99.90;;;;;;5060273;28;19909;-79
2023/02/19 07:10:57;;;;;;;;;;;9.80;99.90;;;;;;5053398;28;20023;-83
2023/02/19 07:13:23;;;;;;;;;;;9.90;99.90;;;;;;5056625;28;19916;-83
2023/02/19 07:15:48;;;;;;;;;;;9.80;99.90;;;;;;5061530;28;19959;-85
2023/02/19 07:18:14;;;;;;;;;;;9.80;99.90;;;;;;5060157;28;19909;-85
2023/02/19 07:20:39;;;;;;;;;;;9.80;99.90;;;;;;5059138;28;19956;-84
2023/02/19 07:23:05;;;;;;;;;;;9.70;99.90;;;;;;5058974;28;19916;-84
2023/02/19 07:25:30;;;;;;;;;;;9.70;99.90;;;;;;5057035;28;19964;-84
2023/02/19 07:27:56;;;;;;;;;;;9.70;99.90;;;;;;5058139;28;20475;-84
2023/02/19 07:30:21;;;;;;;;;;;9.70;99.90;;;;;;5060535;28;20427;-83
2023/02/19 07:32:47;;;;;;;;;;;9.70;99.90;;;;;;5058596;28;19972;-84
2023/02/19 07:35:12;;;;;;;;;;;9.70;99.90;;;;;;5058457;28;19975;-84
2023/02/19 07:37:39;;;;;;;;;;;9.70;99.90;;;;;;5053326;28;19913;-84
2023/02/19 07:40:05;;;;;;;;;;;9.70;99.90;;;;;;5042132;28;19995;-84
2023/02/19 07:42:30;;;;;;;;;;;9.80;99.90;;;;;;5058622;28;20341;-84
2023/02/19 07:44:56;;;;;;;;;;;9.80;99.90;;;;;;5055334;28;19924;-84
2023/02/19 07:47:21;;;;;;;;;;;9.80;99.90;;;;;;5051612;28;19916;-84
2023/02/19 07:49:47;;;;;;;;;;;9.80;99.90;;;;;;5059746;28;19916;-81
2023/02/19 07:52:12;;;;;;;;;;;9.80;99.90;;;;;;5059104;28;20254;-83
2023/02/19 07:54:38;;;;;;;;;;;9.80;99.90;;;;;;5057372;28;20012;-84
2023/02/19 07:57:03;;;;;;;;;;;9.80;99.90;;;;;;5059828;28;19909;-81
2023/02/19 07:59:29;;;;;;;;;;;9.80;99.90;;;;;;5057038;28;19971;-82
2023/02/19 08:04:39;;;;;;;;;;;9.80;99.90;;;;;;5054798;28;19935;-82
2023/02/19 08:07:04;;;;;;;;;;;9.80;99.90;;;;;;5053585;28;19909;-83
2023/02/19 08:09:30;;;;;;;;;;;9.90;99.90;;;;;;5051178;28;19909;-84
2023/02/19 08:14:40;;;;;;;;;;;9.80;99.90;;;;;;5059748;28;19979;-85
2023/02/19 08:17:05;;;;;;;;;;;9.80;99.90;;;;;;5057202;28;19909;-85
2023/02/19 08:19:31;;;;;;;;;;;9.80;99.90;;;;;;5054007;28;19913;-85
2023/02/19 08:21:56;;;;;;;;;;;9.80;99.90;;;;;;5049720;28;19913;-85
2023/02/19 08:24:22;;;;;;;;;;;9.80;99.90;;;;;;5050558;28;19917;-85
2023/02/19 08:26:47;;;;;;;;;;;9.80;99.90;;;;;;5056022;28;20016;-84
2023/02/19 08:29:13;;;;;;;;;;;9.80;99.90;;;;;;5049560;28;19916;-86
2023/02/19 08:31:39;;;;;;;;;;;9.80;99.90;;;;;;5052047;28;19921;-83
2023/02/19 08:34:04;;;;;;;;;;;9.90;99.90;;;;;;5051726;28;19909;-83
2023/02/19 08:36:30;;;;;;;;;;;9.90;99.90;;;;;;5052435;28;20365;-85
2023/02/19 08:38:55;;;;;;;;;;;9.90;99.90;;;;;;5056466;28;19919;-84
2023/02/19 08:41:21;;;;;;;;;;;9.90;99.90;;;;;;5060624;28;19932;-84
2023/02/19 08:43:46;;;;;;;;;;;9.90;99.90;;;;;;5062252;28;19917;-84
2023/02/19 08:46:12;;;;;;;;;;;9.90;99.90;;;;;;5054487;28;20296;-86
2023/02/19 08:48:38;;;;;;;;;;;10.00;99.90;;;;;;5059713;28;19912;-85
2023/02/19 08:51:06;;;;;;;;;;;10.00;99.90;;;;;;5053602;28;19920;-85
2023/02/19 08:53:32;;;;;;;;;;;10.00;99.90;;;;;;5061458;28;19936;-85
2023/02/19 08:56:02;;;;;;;;;;;10.00;99.90;;;;;;5058697;28;19924;-85
2023/02/19 08:58:28;;;;;;;;;;;10.10;99.90;;;;;;5040172;28;19919;-87
2023/02/19 09:00:53;;;;;;;;;;;10.10;99.90;;;;;;5053325;28;19917;-86
2023/02/19 09:03:19;;;;;;;;;;;10.10;99.90;;;;;;5058265;28;20314;-85
2023/02/19 09:05:45;;;;;;;;;;;10.20;99.90;;;;;;5052697;28;19916;-86
2023/02/19 09:08:11;;;;;;;;;;;10.20;99.90;;;;;;5049503;28;19992;-86
2023/02/19 09:10:37;;;;;;;;;;;10.20;99.90;;;;;;5054710;28;19963;-85
2023/02/19 09:13:02;;;;;;;;;;;10.30;99.90;;;;;;5055384;28;21238;-85
2023/02/19 09:15:28;;;;;;;;;;;10.30;99.90;;;;;;5050050;28;19923;-85
2023/02/19 09:17:54;;;;;;;;;;;10.30;99.90;;;;;;5053185;28;19921;-86
2023/02/19 09:20:19;;;;;;;;;;;10.30;99.90;;;;;;5058059;28;19921;-86
2023/02/19 09:22:45;;;;;;;;;;;10.30;99.90;;;;;;5050948;28;20266;-86
2023/02/19 09:25:10;;;;;;;;;;;10.30;99.90;;;;;;5046044;28;19967;-87
2023/02/19 09:27:36;;;;;;;;;;;10.30;99.90;;;;;;5056972;28;19909;-88
2023/02/19 09:30:01;;;;;;;;;;;10.30;99.90;;;;;;5052269;28;19912;-87
2023/02/19 09:32:29;;;;;;;;;;;10.30;99.90;;;;;;5056778;28;20293;-86
2023/02/19 09:34:55;;;;;;;;;;;10.40;99.90;;;;;;5052761;28;20356;-86
2023/02/19 09:37:23;;;;;;;;;;;10.30;99.90;;;;;;5050973;28;19971;-84
2023/02/19 09:39:49;;;;;;;;;;;10.40;99.90;;;;;;5058756;28;20011;-87
2023/02/19 09:42:17;;;;;;;;;;;10.40;99.90;;;;;;5051954;28;19955;-87
2023/02/19 09:44:46;;;;;;;;;;;10.50;99.90;;;;;;5058930;28;19956;-88
2023/02/19 09:47:16;;;;;;;;;;;10.50;99.90;;;;;;5057935;28;20428;-90
2023/02/19 09:49:49;;;;;;;;;;;10.50;99.90;;;;;;5047567;28;19924;-87
2023/02/19 09:52:18;;;;;;;;;;;10.60;99.90;;;;;;5063487;28;19909;-86
2023/02/19 09:54:44;;;;;;;;;;;10.60;99.90;;;;;;5047106;28;19909;-87
2023/02/19 09:57:14;;;;;;;;;;;10.50;99.90;;;;;;5054093;28;19913;-87
2023/02/19 09:59:50;;;;;;;;;;;10.60;99.90;;;;;;5063117;28;19931;-88
2023/02/19 10:02:16;;;;;;;;;;;10.60;99.90;;;;;;5047412;28;19909;-88
2023/02/19 10:04:42;;;;;;;;;;;10.60;99.90;;;;;;5063347;28;19920;-88
2023/02/19 10:07:11;;;;;;;;;;;10.50;99.90;;;;;;5065060;28;20181;-87
2023/02/19 10:09:37;;;;;;;;;;;10.50;99.90;;;;;;5061169;28;19920;-85
2023/02/19 10:12:04;;;;;;;;;;;10.50;99.90;;;;;;5044731;28;19909;-87
2023/02/19 10:14:32;;;;;;;;;;;10.50;99.90;;;;;;5059134;28;19945;-88
2023/02/19 10:16:59;;;;;;;;;;;10.60;99.90;;;;;;5050438;28;19974;-86
2023/02/19 10:19:25;;;;;;;;;;;10.60;99.90;;;;;;5062678;28;19909;-88
2023/02/19 10:21:50;;;;;;;;;;;10.50;99.90;;;;;;5062089;28;19913;-85
2023/02/19 10:24:21;;;;;;;;;;;10.50;99.90;;;;;;5063483;28;19936;-87
2023/02/19 10:26:48;;;;;;;;;;;10.60;99.90;;;;;;5064483;28;19913;-86
2023/02/19 10:29:14;;;;;;;;;;;10.50;99.90;;;;;;5058642;28;19999;-87
2023/02/19 10:31:40;;;;;;;;;;;10.60;99.90;;;;;;5054927;28;20253;-86
2023/02/19 10:34:15;;;;;;;;;;;10.50;99.90;;;;;;5061845;28;19948;-88
2023/02/19 10:36:41;;;;;;;;;;;10.50;99.90;;;;;;5058910;28;19908;-86
2023/02/19 10:39:25;;;;;;;;;;;10.60;99.90;;;;;;5054992;28;19909;-86
2023/02/19 10:41:53;;;;;;;;;;;10.50;99.90;;;;;;5058921;28;20289;-87
2023/02/19 10:44:26;;;;;;;;;;;10.60;99.90;;;;;;5057067;28;20438;-85
2023/02/19 10:46:54;;;;;;;;;;;10.60;99.90;;;;;;5058615;28;20320;-86
2023/02/19 10:49:22;;;;;;;;;;;10.50;99.90;;;;;;5051525;28;19909;-88
2023/02/19 10:51:48;;;;;;;;;;;10.50;99.90;;;;;;5057271;28;19909;-86
2023/02/19 10:54:17;;;;;;;;;;;10.50;99.90;;;;;;5053125;28;19912;-86
2023/02/19 10:56:42;;;;;;;;;;;10.50;99.90;;;;;;5046816;28;20358;-83
2023/02/19 10:59:20;;;;;;;;;;;10.50;99.90;;;;;;5061646;28;19923;-85
2023/02/19 11:02:12;;;;;;;;;;;10.60;99.90;;;;;;5050310;28;19920;-84
2023/02/19 11:04:37;;;;;;;;;;;10.60;99.90;;;;;;5052892;28;19917;-86
2023/02/19 11:07:14;;;;;;;;;;;10.70;99.90;;;;;;5060103;28;19915;-85
2023/02/19 11:09:41;;;;;;;;;;;10.70;99.90;;;;;;5056907;28;19930;-83
2023/02/19 11:12:08;;;;;;;;;;;10.70;99.90;;;;;;5057730;28;20414;-86
2023/02/19 11:14:33;;;;;;;;;;;10.80;99.90;;;;;;5047329;28;19920;-87
2023/02/19 11:17:00;;;;;;;;;;;10.80;99.90;;;;;;5056088;28;19921;-85
2023/02/19 11:19:39;;;;;;;;;;;10.80;99.90;;;;;;5055804;28;19922;-84
2023/02/19 11:22:18;;;;;;;;;;;10.80;99.90;;;;;;5052736;28;19901;-85
2023/02/19 11:24:46;;;;;;;;;;;10.70;99.90;;;;;;5052957;28;19913;-86
2023/02/19 11:27:20;;;;;;;;;;;10.80;99.90;;;;;;5053912;28;20036;-84
2023/02/19 11:29:45;;;;;;;;;;;10.80;99.90;;;;;;5056660;28;19924;-86
2023/02/19 11:32:24;;;;;;;;;;;10.80;99.90;;;;;;5056831;28;19928;-86
2023/02/19 11:34:50;;;;;;;;;;;10.80;99.90;;;;;;5058819;28;19909;-86
2023/02/19 11:37:20;;;;;;;;;;;10.70;99.90;;;;;;5059063;28;20032;-85
2023/02/19 11:39:46;;;;;;;;;;;10.70;99.90;;;;;;5054904;28;19916;-87
2023/02/19 11:42:18;;;;;;;;;;;10.80;99.90;;;;;;5057847;28;19919;-86
2023/02/19 11:44:47;;;;;;;;;;;10.80;99.90;;;;;;5062995;28;20348;-86
2023/02/19 11:47:38;;;;;;;;;;;10.70;99.90;;;;;;5055562;28;20373;-85
2023/02/19 11:50:12;;;;;;;;;;;10.70;99.90;;;;;;5052988;28;19975;-86
2023/02/19 11:52:50;;;;;;;;;;;10.70;99.90;;;;;;5056061;28;20340;-85
2023/02/19 11:55:20;;;;;;;;;;;10.70;99.90;;;;;;5055092;28;19993;-85
2023/02/19 11:57:47;;;;;;;;;;;10.60;99.90;;;;;;5053153;28;20369;-86
2023/02/19 12:00:34;;;;;;;;;;;10.70;99.90;;;;;;5050847;28;19913;-85
2023/02/19 12:03:19;;;;;;;;;;;10.60;99.90;;;;;;5049031;28;19919;-85
2023/02/19 12:05:51;;;;;;;;;;;10.70;99.90;;;;;;5058473;28;19962;-84
2023/02/19 12:08:19;;;;;;;;;;;10.70;99.90;;;;;;5066621;28;19925;-84
2023/02/19 12:11:08;;;;;;;;;;;10.80;99.90;;;;;;5044445;28;19925;-86
2023/02/19 12:13:33;;;;;;;;;;;10.90;99.90;;;;;;5044294;28;19984;-83
2023/02/19 12:16:02;;;;;;;;;;;11.00;99.90;;;;;;5049210;28;19994;-82
2023/02/19 12:18:27;;;;;;;;;;;11.00;99.90;;;;;;5041189;28;19916;-82
2023/02/19 12:20:58;;;;;;;;;;;11.10;99.90;;;;;;5055345;28;20307;-81
2023/02/19 12:23:47;;;;;;;;;;;11.20;99.90;;;;;;5040846;28;19913;-83
2023/02/19 12:26:31;;;;;;;;;;;11.40;99.90;;;;;;5047470;28;19915;-84
2023/02/19 12:29:10;;;;;;;;;;;11.50;99.90;;;;;;5059634;28;19979;-83
2023/02/19 12:31:39;;;;;;;;;;;11.80;99.90;;;;;;5058724;28;20369;-83
2023/02/19 12:34:07;;;;;;;;;;;12.20;99.90;;;;;;5053344;28;20360;-83
2023/02/19 12:36:47;;;;;;;;;;;12.70;99.90;;;;;;5048934;28;19913;-82
2023/02/19 12:39:25;;;;;;;;;;;12.80;99.90;;;;;;5058614;28;19935;-82
2023/02/19 12:42:02;;;;;;;;;;;12.60;99.90;;;;;;5060975;28;19915;-82
2023/02/19 12:44:47;;;;;;;;;;;12.40;99.90;;;;;;5059827;28;19913;-82
2023/02/19 12:47:22;;;;;;;;;;;12.60;99.90;;;;;;5059901;28;19909;-81
2023/02/19 12:49:49;;;;;;;;;;;12.70;99.90;;;;;;5057842;28;19986;-83
2023/02/19 12:52:17;;;;;;;;;;;13.10;99.90;;;;;;5057840;28;19913;-83
2023/02/19 12:54:45;;;;;;;;;;;12.90;99.90;;;;;;5059367;28;20012;-84
2023/02/19 12:57:21;;;;;;;;;;;12.40;99.90;;;;;;5054544;28;19948;-82
2023/02/19 12:59:47;;;;;;;;;;;12.10;99.90;;;;;;5040518;28;19909;-83
2023/02/19 13:02:42;;;;;;;;;;;12.00;99.90;;;;;;5038492;28;20251;-83
2023/02/19 13:05:14;;;;;;;;;;;11.80;99.90;;;;;;5021159;28;20008;-87
2023/02/19 13:07:46;;;;;;;;;;;11.50;99.90;;;;;;5049133;28;19908;-85
2023/02/19 13:10:21;;;;;;;;;;;11.60;99.90;;;;;;5045893;28;19913;-86
2023/02/19 13:12:48;;;;;;;;;;;11.50;99.90;;;;;;5050860;28;19910;-86
2023/02/19 13:15:16;;;;;;;;;;;11.40;99.90;;;;;;5046131;28;19943;-86
2023/02/19 13:17:47;;;;;;;;;;;11.10;99.90;;;;;;5051937;28;19952;-86
2023/02/19 13:20:24;;;;;;;;;;;11.10;99.90;;;;;;5051905;28;19908;-85
2023/02/19 13:25:47;;;;;;;;;;;10.90;99.90;;;;;;5056262;28;19920;-85
2023/02/19 13:28:19;;;;;;;;;;;10.70;99.90;;;;;;5056156;28;20273;-86
2023/02/19 13:30:55;;;;;;;;;;;10.40;99.90;;;;;;5051192;28;20725;-86
2023/02/19 13:33:21;;;;;;;;;;;10.30;99.90;;;;;;5054722;28;19921;-86
2023/02/19 13:36:05;;;;;;;;;;;10.20;99.90;;;;;;5056531;28;19919;-85
2023/02/19 13:38:32;;;;;;;;;;;10.20;99.90;;;;;;5054380;28;19913;-85
2023/02/19 13:40:59;;;;;;;;;;;10.20;99.90;;;;;;5050076;28;19921;-86
2023/02/19 13:43:27;;;;;;;;;;;10.20;99.90;;;;;;5052933;28;19936;-87
2023/02/19 13:45:55;;;;;;;;;;;10.20;99.90;;;;;;5058029;28;20273;-86
2023/02/19 13:48:25;;;;;;;;;;;10.20;99.90;;;;;;5051779;28;20340;-85
2023/02/19 13:51:09;;;;;;;;;;;10.20;99.90;;;;;;5052442;28;19951;-87
2023/02/19 13:53:41;;;;;;;;;;;10.30;99.90;;;;;;5051967;28;19970;-84
2023/02/19 13:56:25;;;;;;;;;;;10.10;99.90;;;;;;5047991;28;20003;-84
2023/02/19 13:58:52;;;;;;;;;;;10.10;99.90;;;;;;5045615;28;19921;-86
2023/02/19 14:01:18;;;;;;;;;;;10.10;99.90;;;;;;5052528;28;19916;-85
2023/02/19 14:03:46;;;;;;;;;;;10.10;99.90;;;;;;5049657;28;21420;-86
2023/02/19 14:06:12;;;;;;;;;;;10.00;99.90;;;;;;5063226;28;19974;-86
2023/02/19 14:08:59;;;;;;;;;;;10.00;99.90;;;;;;5051628;28;19912;-83
2023/02/19 14:11:57;;;;;;;;;;;10.10;99.90;;;;;;5051941;28;19948;-84
2023/02/19 14:14:24;;;;;;;;;;;10.20;99.90;;;;;;5001583;28;19956;-86
2023/02/19 14:16:51;;;;;;;;;;;10.20;99.90;;;;;;5049985;28;19924;-84
2023/02/19 14:19:37;;;;;;;;;;;10.30;99.90;;;;;;5055866;28;19917;-85
2023/02/19 14:22:22;;;;;;;;;;;10.30;99.90;;;;;;5039279;28;19976;-84
2023/02/19 14:24:48;;;;;;;;;;;10.30;99.90;;;;;;5069019;28;20015;-85
2023/02/19 14:27:14;;;;;;;;;;;10.40;99.90;;;;;;5052892;28;19957;-86
2023/02/19 14:29:40;;;;;;;;;;;10.40;99.90;;;;;;5052659;28;20055;-86
2023/02/19 14:32:05;;;;;;;;;;;10.30;99.90;;;;;;5052278;28;20051;-84
2023/02/19 14:34:32;;;;;;;;;;;10.40;99.90;;;;;;5049634;28;20015;-86
2023/02/19 14:36:58;;;;;;;;;;;10.40;99.90;;;;;;5046853;28;20511;-85
2023/02/19 14:39:23;;;;;;;;;;;10.40;99.90;;;;;;5054181;28;19913;-85
2023/02/19 14:41:57;;;;;;;;;;;10.50;99.90;;;;;;5042973;28;19913;-86
2023/02/19 14:44:24;;;;;;;;;;;10.50;99.90;;;;;;5062070;28;20374;-86
2023/02/19 14:46:52;;;;;;;;;;;10.50;99.90;;;;;;5049150;28;19961;-86
2023/02/19 14:49:27;;;;;;;;;;;10.50;99.90;;;;;;5054457;28;19913;-86
2023/02/19 14:51:55;;;;;;;;;;;10.50;99.90;;;;;;5053662;28;19913;-85
2023/02/19 14:54:27;;;;;;;;;;;10.50;99.90;;;;;;5049513;28;19954;-88